createdAt,value
2023-03-19T00:00:43.792Z,6.65
2023-03-19T00:03:11.413Z,6.76
2023-03-19T00:05:38.540Z,6.84
2023-03-19T00:08:07.345Z,6.95
2023-03-19T00:10:39.876Z,6.97
2023-03-19T00:13:07.214Z,7.06
2023-03-19T00:15:34.178Z,7.13
2023-03-19T00:18:01.376Z,7.07
2023-03-19T00:20:28.271Z,7.18
2023-03-19T00:22:55.168Z,7.19
2023-03-19T00:25:22.053Z,7.16
2023-03-19T00:27:48.880Z,7.22
2023-03-19T00:30:16.104Z,7.15
2023-03-19T00:32:43.368Z,7.10
2023-03-19T00:35:10.906Z,7.03
2023-03-19T00:37:37.764Z,6.96
2023-03-19T00:40:05.486Z,6.77
2023-03-19T00:42:35.295Z,6.69
2023-03-19T00:45:02.104Z,6.64
2023-03-19T00:47:28.943Z,6.45
2023-03-19T00:49:56.100Z,6.44
2023-03-19T00:52:23.110Z,6.34
2023-03-19T00:54:49.916Z,6.38
2023-03-19T00:57:17.002Z,6.40
2023-03-19T00:59:43.838Z,6.43
2023-03-19T01:02:11.078Z,6.39
2023-03-19T01:04:38.401Z,6.32
2023-03-19T01:07:05.419Z,6.35
2023-03-19T01:09:33.081Z,6.27
2023-03-19T01:12:03.866Z,6.22
2023-03-19T01:14:32.250Z,6.28
2023-03-19T01:16:59.455Z,6.23
2023-03-19T01:19:26.422Z,6.32
2023-03-19T01:21:53.227Z,6.14
2023-03-19T01:24:20.214Z,6.10
2023-03-19T01:26:47.085Z,6.04
2023-03-19T01:29:13.983Z,6.17
2023-03-19T01:31:41.046Z,6.00
2023-03-19T01:34:07.840Z,5.87
2023-03-19T01:36:34.833Z,5.92
2023-03-19T01:39:01.974Z,5.77
2023-03-19T01:41:28.858Z,5.93
2023-03-19T01:43:55.783Z,5.87
2023-03-19T01:46:36.731Z,5.76
2023-03-19T01:49:07.240Z,5.76
2023-03-19T01:51:39.943Z,5.63
2023-03-19T01:54:12.295Z,5.71
2023-03-19T01:56:40.581Z,5.68
2023-03-19T01:59:15.854Z,5.77
2023-03-19T02:01:58.594Z,5.77
2023-03-19T02:04:27.395Z,5.74
2023-03-19T02:06:56.434Z,5.82
2023-03-19T02:09:26.346Z,5.59
2023-03-19T02:11:54.511Z,5.72
2023-03-19T02:14:21.775Z,5.70
2023-03-19T02:16:49.055Z,5.61
2023-03-19T02:19:39.345Z,5.65
2023-03-19T02:22:07.731Z,5.69
2023-03-19T02:24:45.455Z,5.66
2023-03-19T02:27:12.465Z,5.69
2023-03-19T02:29:39.242Z,5.63
2023-03-19T02:32:06.248Z,5.69
2023-03-19T02:34:36.489Z,5.63
2023-03-19T02:37:26.304Z,5.58
2023-03-19T02:40:04.723Z,5.63
2023-03-19T02:42:31.670Z,5.60
2023-03-19T02:44:59.929Z,5.54
2023-03-19T02:47:27.704Z,5.63
2023-03-19T02:49:55.269Z,5.79
2023-03-19T02:52:22.381Z,5.66
2023-03-19T02:54:49.463Z,5.69
2023-03-19T02:57:16.736Z,5.58
2023-03-19T02:59:43.668Z,5.54
2023-03-19T03:02:11.054Z,5.57
2023-03-19T03:04:37.991Z,5.37
2023-03-19T03:07:05.452Z,5.38
2023-03-19T03:09:32.612Z,5.40
2023-03-19T03:11:59.554Z,5.33
2023-03-19T03:14:26.402Z,5.31
2023-03-19T03:16:53.399Z,5.34
2023-03-19T03:19:20.579Z,5.50
2023-03-19T03:21:47.487Z,5.57
2023-03-19T03:24:14.486Z,5.42
2023-03-19T03:26:41.473Z,5.51
2023-03-19T03:29:08.866Z,5.55
2023-03-19T03:31:35.873Z,5.50
2023-03-19T03:34:03.008Z,5.49
2023-03-19T03:36:29.928Z,5.69
2023-03-19T03:38:56.990Z,5.70
2023-03-19T03:41:24.148Z,5.56
2023-03-19T03:43:51.175Z,5.61
2023-03-19T03:46:18.276Z,5.66
2023-03-19T03:48:45.598Z,5.57
2023-03-19T03:51:12.420Z,5.55
2023-03-19T03:53:39.208Z,5.66
2023-03-19T03:56:07.789Z,5.64
2023-03-19T03:58:34.717Z,5.65
2023-03-19T04:01:01.840Z,5.61
2023-03-19T04:03:29.135Z,5.66
2023-03-19T04:05:56.118Z,5.61
2023-03-19T04:08:23.642Z,5.54
2023-03-19T04:10:50.956Z,5.37
2023-03-19T04:13:17.839Z,5.44
2023-03-19T04:15:47.093Z,5.24
2023-03-19T04:18:13.998Z,5.36
2023-03-19T04:20:41.512Z,5.28
2023-03-19T04:23:08.515Z,5.24
2023-03-19T04:25:35.465Z,5.07
2023-03-19T04:28:02.418Z,5.20
2023-03-19T04:30:29.460Z,5.03
2023-03-19T04:32:56.961Z,5.27
2023-03-19T04:35:24.388Z,5.29
2023-03-19T04:37:51.821Z,5.27
2023-03-19T04:40:18.993Z,5.20
2023-03-19T04:42:46.089Z,5.12
2023-03-19T04:45:13.217Z,4.96
2023-03-19T04:47:40.277Z,5.08
2023-03-19T04:50:08.547Z,4.99
2023-03-19T04:52:37.354Z,5.10
2023-03-19T04:55:05.783Z,4.89
2023-03-19T04:57:32.976Z,5.00
2023-03-19T04:59:59.878Z,5.08
2023-03-19T05:02:27.443Z,5.21
2023-03-19T05:04:54.434Z,5.45
2023-03-19T05:07:21.657Z,5.59
2023-03-19T05:09:48.717Z,5.88
2023-03-19T05:12:16.079Z,6.16
2023-03-19T05:14:42.914Z,5.87
2023-03-19T05:17:11.374Z,6.21
2023-03-19T05:19:39.651Z,6.22
2023-03-19T05:22:06.664Z,5.67
2023-03-19T05:24:33.672Z,5.92
2023-03-19T05:27:00.578Z,6.00
2023-03-19T05:29:28.096Z,6.03
2023-03-19T05:31:54.989Z,6.11
2023-03-19T05:34:21.917Z,5.97
2023-03-19T05:36:49.262Z,6.02
2023-03-19T05:39:16.260Z,5.96
2023-03-19T05:41:43.086Z,6.07
2023-03-19T05:44:09.981Z,6.07
2023-03-19T05:46:37.043Z,6.22
2023-03-19T05:49:04.818Z,6.42
2023-03-19T05:51:32.216Z,6.70
2023-03-19T05:53:59.410Z,7.57
2023-03-19T05:56:26.364Z,8.05
2023-03-19T05:58:53.355Z,7.90
2023-03-19T06:01:20.371Z,7.90
2023-03-19T06:03:47.373Z,7.81
2023-03-19T06:06:14.543Z,7.89
2023-03-19T06:08:41.970Z,8.15
2023-03-19T06:11:09.495Z,8.03
2023-03-19T06:13:36.491Z,8.52
2023-03-19T06:16:03.511Z,9.21
2023-03-19T06:18:30.448Z,9.67
2023-03-19T06:20:57.492Z,10.05
2023-03-19T06:23:28.257Z,10.36
2023-03-19T06:25:55.112Z,11.49
2023-03-19T06:28:22.050Z,11.68
2023-03-19T06:30:49.043Z,12.51
2023-03-19T06:33:16.306Z,12.61
2023-03-19T06:35:43.179Z,12.64
2023-03-19T06:38:10.038Z,12.87
2023-03-19T06:40:36.959Z,12.73
2023-03-19T06:43:03.843Z,12.85
2023-03-19T06:45:31.273Z,12.81
2023-03-19T06:47:58.105Z,13.03
2023-03-19T06:50:24.931Z,13.90
2023-03-19T06:52:52.282Z,14.52
2023-03-19T06:55:20.644Z,14.67
2023-03-19T06:57:51.386Z,14.92
2023-03-19T07:00:19.480Z,14.79
2023-03-19T07:02:46.386Z,15.31
2023-03-19T07:05:13.482Z,14.98
2023-03-19T07:07:40.432Z,15.07
2023-03-19T07:10:07.788Z,15.26
2023-03-19T07:12:34.868Z,15.83
2023-03-19T07:15:01.792Z,16.07
2023-03-19T07:17:28.625Z,16.31
2023-03-19T07:19:55.417Z,16.85
2023-03-19T07:22:22.657Z,16.50
2023-03-19T07:24:49.566Z,16.38
2023-03-19T07:27:16.643Z,16.06
2023-03-19T07:29:43.506Z,15.98
2023-03-19T07:32:11.852Z,16.45
2023-03-19T07:34:38.658Z,16.19
2023-03-19T07:37:05.567Z,16.53
2023-03-19T07:39:32.428Z,16.54
2023-03-19T07:41:59.366Z,16.75
2023-03-19T07:44:26.256Z,16.82
2023-03-19T07:46:53.114Z,16.98
2023-03-19T07:49:20.053Z,16.85
2023-03-19T07:51:46.944Z,17.43
2023-03-19T07:54:14.175Z,17.62
2023-03-19T07:56:41.284Z,18.14
2023-03-19T07:59:08.313Z,18.41
2023-03-19T08:01:35.613Z,18.40
2023-03-19T08:04:02.457Z,18.60
2023-03-19T08:06:29.953Z,18.12
2023-03-19T08:08:56.746Z,18.66
2023-03-19T08:11:23.564Z,18.70
2023-03-19T08:13:50.973Z,18.89
2023-03-19T08:16:17.868Z,19.11
2023-03-19T08:18:44.755Z,19.16
2023-03-19T08:21:11.882Z,18.92
2023-03-19T08:23:38.800Z,18.09
2023-03-19T08:26:05.758Z,18.72
2023-03-19T08:28:32.732Z,18.08
2023-03-19T08:31:10.240Z,17.74
2023-03-19T08:33:37.655Z,17.94
2023-03-19T08:36:14.175Z,17.35
2023-03-19T08:38:40.978Z,17.74
2023-03-19T08:41:09.246Z,17.81
2023-03-19T08:43:38.074Z,17.63
2023-03-19T08:46:08.168Z,18.09
2023-03-19T08:48:34.996Z,19.09
2023-03-19T08:51:03.445Z,19.26
2023-03-19T08:53:32.488Z,19.31
2023-03-19T08:56:02.260Z,19.81
2023-03-19T08:58:29.154Z,19.42
2023-03-19T09:01:04.959Z,19.47
2023-03-19T09:03:32.494Z,19.17
2023-03-19T09:06:01.408Z,19.63
2023-03-19T09:08:29.326Z,19.70
2023-03-19T09:10:56.791Z,19.85
2023-03-19T09:13:24.552Z,19.50
2023-03-19T09:15:51.637Z,19.19
2023-03-19T09:18:20.768Z,19.71
2023-03-19T09:20:48.406Z,19.39
2023-03-19T09:23:15.661Z,17.75
2023-03-19T09:25:42.835Z,17.49
2023-03-19T09:28:09.673Z,17.93
2023-03-19T09:30:36.582Z,17.94
2023-03-19T09:33:04.370Z,19.08
2023-03-19T09:35:33.045Z,18.57
2023-03-19T09:38:02.156Z,17.83
2023-03-19T09:41:04.303Z,17.84
2023-03-19T09:43:42.135Z,17.93
2023-03-19T09:46:24.341Z,18.70
2023-03-19T09:49:14.244Z,18.51
2023-03-19T09:51:54.955Z,18.43
2023-03-19T09:54:42.903Z,19.52
2023-03-19T09:57:12.192Z,20.19
2023-03-19T09:59:41.033Z,20.22
2023-03-19T10:02:31.979Z,20.24
2023-03-19T10:05:37.518Z,20.74
2023-03-19T10:08:13.377Z,19.92
2023-03-19T10:10:50.568Z,20.48
2023-03-19T10:13:38.082Z,20.16
2023-03-19T10:16:06.589Z,19.86
2023-03-19T10:18:36.871Z,18.60
2023-03-19T10:21:10.514Z,19.31
2023-03-19T10:24:00.482Z,18.72
2023-03-19T10:26:34.755Z,19.10
2023-03-19T10:29:15.867Z,19.19
2023-03-19T10:31:45.535Z,19.00
2023-03-19T10:34:32.871Z,18.96
2023-03-19T10:37:13.424Z,18.94
2023-03-19T10:39:43.866Z,19.47
2023-03-19T10:42:32.591Z,18.98
2023-03-19T10:45:06.269Z,19.12
2023-03-19T10:47:39.324Z,19.10
2023-03-19T10:50:07.295Z,19.54
2023-03-19T10:52:37.102Z,19.34
2023-03-19T10:55:18.240Z,19.67
2023-03-19T10:57:49.379Z,19.87
2023-03-19T11:00:25.055Z,20.14
2023-03-19T11:02:54.810Z,20.41
2023-03-19T11:05:21.646Z,19.58
2023-03-19T11:07:58.013Z,20.27
2023-03-19T11:10:27.342Z,20.38
2023-03-19T11:13:00.810Z,20.23
2023-03-19T11:15:40.154Z,20.70
2023-03-19T11:18:21.183Z,20.41
2023-03-19T11:21:06.213Z,20.08
2023-03-19T11:23:40.447Z,19.37
2023-03-19T11:26:07.622Z,19.75
2023-03-19T11:28:37.763Z,20.21
2023-03-19T11:31:24.205Z,20.37
2023-03-19T11:34:00.149Z,19.72
2023-03-19T11:36:45.745Z,19.86
2023-03-19T11:39:32.460Z,19.31
2023-03-19T11:42:28.074Z,19.21
2023-03-19T11:45:24.277Z,19.54
2023-03-19T11:47:54.078Z,19.79
2023-03-19T11:50:26.667Z,19.38
2023-03-19T11:53:02.664Z,19.13
2023-03-19T11:55:43.822Z,19.19
2023-03-19T11:59:09.245Z,19.79
2023-03-19T12:01:48.722Z,20.07
2023-03-19T12:04:49.460Z,19.47
2023-03-19T12:07:47.605Z,19.98
2023-03-19T12:10:52.891Z,19.09
2023-03-19T12:13:44.831Z,19.29
2023-03-19T12:16:46.652Z,19.15
2023-03-19T12:19:46.134Z,19.74
2023-03-19T12:22:33.168Z,19.58
2023-03-19T12:25:18.665Z,20.02
2023-03-19T12:27:57.548Z,20.24
2023-03-19T12:30:45.432Z,19.83
2023-03-19T12:33:38.215Z,20.01
2023-03-19T12:36:12.332Z,20.19
2023-03-19T12:38:43.956Z,20.06
2023-03-19T12:41:14.504Z,19.87
2023-03-19T12:43:53.622Z,19.99
2023-03-19T12:46:45.025Z,20.11
2023-03-19T12:49:19.617Z,19.98
2023-03-19T12:51:52.395Z,20.07
2023-03-19T12:54:35.757Z,19.87
2023-03-19T12:57:39.955Z,20.17
2023-03-19T13:00:26.545Z,20.19
2023-03-19T13:03:16.196Z,20.26
2023-03-19T13:06:08.828Z,19.94
2023-03-19T13:08:54.348Z,20.13
2023-03-19T13:11:36.590Z,20.15
2023-03-19T13:14:17.178Z,19.96
2023-03-19T13:16:57.358Z,20.33
2023-03-19T13:19:30.350Z,20.59
2023-03-19T13:22:02.189Z,20.64
2023-03-19T13:24:36.862Z,20.50
2023-03-19T13:27:04.358Z,20.36
2023-03-19T13:29:35.021Z,20.22
2023-03-19T13:32:05.884Z,20.19
2023-03-19T13:34:36.234Z,20.05
2023-03-19T13:37:15.068Z,20.41
2023-03-19T13:39:43.788Z,20.56
2023-03-19T13:42:43.893Z,20.62
2023-03-19T13:45:37.591Z,20.48
2023-03-19T13:48:27.046Z,20.63
2023-03-19T13:51:28.115Z,20.70
2023-03-19T13:54:15.456Z,20.53
2023-03-19T13:57:04.592Z,20.36
2023-03-19T13:59:32.949Z,20.45
2023-03-19T14:02:01.780Z,20.69
2023-03-19T14:04:38.371Z,20.62
2023-03-19T14:07:11.158Z,20.53
2023-03-19T14:09:48.811Z,20.68
2023-03-19T14:12:15.973Z,20.89
2023-03-19T14:14:50.159Z,20.86
2023-03-19T14:17:21.165Z,20.91
2023-03-19T14:19:50.130Z,20.48
2023-03-19T14:22:17.016Z,20.54
2023-03-19T14:25:03.871Z,20.65
2023-03-19T14:27:33.428Z,20.63
2023-03-19T14:30:11.373Z,20.58
2023-03-19T14:32:41.295Z,20.42
2023-03-19T14:35:14.206Z,20.58
2023-03-19T14:37:50.553Z,20.42
2023-03-19T14:40:22.380Z,20.43
2023-03-19T14:43:13.504Z,20.34
2023-03-19T14:45:46.229Z,20.42
2023-03-19T14:48:25.426Z,20.39
2023-03-19T14:51:30.612Z,20.27
2023-03-19T14:54:15.557Z,20.26
2023-03-19T14:56:42.407Z,20.24
2023-03-19T14:59:11.817Z,20.16
2023-03-19T15:01:47.232Z,20.19
2023-03-19T15:04:16.659Z,20.14
2023-03-19T15:06:50.159Z,20.05
2023-03-19T15:09:20.808Z,20.04
2023-03-19T15:11:48.252Z,19.96
2023-03-19T15:14:30.659Z,19.84
2023-03-19T15:17:06.960Z,19.81
2023-03-19T15:19:36.612Z,19.78
2023-03-19T15:22:05.546Z,19.63
2023-03-19T15:24:32.480Z,19.49
2023-03-19T15:26:59.399Z,19.53
2023-03-19T15:29:33.610Z,19.51
2023-03-19T15:32:05.379Z,19.47
2023-03-19T15:34:33.654Z,19.40
2023-03-19T15:37:07.202Z,19.33
2023-03-19T15:39:43.178Z,19.25
2023-03-19T15:42:10.621Z,19.09
2023-03-19T15:45:02.630Z,18.95
2023-03-19T15:47:33.298Z,18.87
2023-03-19T15:50:15.691Z,18.77
2023-03-19T15:52:48.119Z,18.67
2023-03-19T15:55:16.753Z,18.56
2023-03-19T15:57:45.156Z,18.48
2023-03-19T16:00:14.358Z,18.34
2023-03-19T16:02:44.373Z,18.27
2023-03-19T16:05:24.702Z,18.15
2023-03-19T16:08:00.315Z,18.04
2023-03-19T16:10:40.504Z,17.93
2023-03-19T16:13:26.038Z,17.84
2023-03-19T16:16:06.284Z,17.73
2023-03-19T16:18:55.726Z,17.61
2023-03-19T16:21:36.560Z,17.52
2023-03-19T16:24:14.361Z,17.41
2023-03-19T16:26:43.901Z,17.27
2023-03-19T16:29:26.465Z,17.18
2023-03-19T16:31:59.685Z,17.11
2023-03-19T16:34:40.731Z,17.02
2023-03-19T16:37:38.511Z,16.93
2023-03-19T16:40:15.603Z,16.83
2023-03-19T16:42:46.917Z,16.70
2023-03-19T16:45:26.275Z,16.65
2023-03-19T16:47:58.768Z,16.56
2023-03-19T16:50:47.631Z,16.46
2023-03-19T16:53:31.968Z,16.31
2023-03-19T16:56:00.997Z,16.27
2023-03-19T16:58:42.545Z,16.22
2023-03-19T17:01:19.550Z,16.12
2023-03-19T17:03:47.361Z,16.09
2023-03-19T17:06:14.962Z,16.02
2023-03-19T17:08:42.165Z,15.93
2023-03-19T17:11:34.916Z,15.89
2023-03-19T17:14:03.469Z,15.79
2023-03-19T17:16:30.409Z,15.70
2023-03-19T17:18:57.540Z,15.61
2023-03-19T17:21:27.222Z,15.42
2023-03-19T17:23:55.246Z,15.34
2023-03-19T17:26:26.037Z,15.23
2023-03-19T17:28:56.434Z,15.16
2023-03-19T17:31:31.974Z,15.09
2023-03-19T17:34:04.988Z,14.98
2023-03-19T17:36:32.458Z,14.90
2023-03-19T17:38:59.344Z,14.74
2023-03-19T17:41:26.165Z,14.56
2023-03-19T17:43:53.008Z,14.44
2023-03-19T17:46:22.839Z,14.28
2023-03-19T17:48:51.544Z,14.19
2023-03-19T17:51:19.020Z,14.13
2023-03-19T17:53:51.419Z,14.07
2023-03-19T17:56:21.296Z,13.93
2023-03-19T17:58:50.371Z,13.84
2023-03-19T18:01:21.322Z,13.78
2023-03-19T18:03:50.233Z,13.72
2023-03-19T18:06:19.539Z,13.66
2023-03-19T18:08:46.959Z,14.34
2023-03-19T18:11:14.521Z,13.95
2023-03-19T18:13:42.376Z,13.80
2023-03-19T18:16:26.040Z,13.39
2023-03-19T18:18:53.177Z,13.44
2023-03-19T18:21:20.029Z,13.45
2023-03-19T18:23:47.019Z,13.40
2023-03-19T18:26:14.168Z,13.36
2023-03-19T18:28:41.334Z,13.23
2023-03-19T18:31:26.972Z,13.07
2023-03-19T18:34:06.578Z,13.11
2023-03-19T18:36:34.483Z,13.05
2023-03-19T18:39:01.521Z,12.86
2023-03-19T18:41:31.754Z,12.85
2023-03-19T18:43:58.648Z,12.72
2023-03-19T18:46:30.740Z,12.65
2023-03-19T18:49:00.915Z,12.63
2023-03-19T18:51:28.719Z,12.65
2023-03-19T18:53:56.338Z,12.62
2023-03-19T18:56:27.256Z,12.45
2023-03-19T18:58:56.598Z,12.53
2023-03-19T19:01:24.579Z,12.51
2023-03-19T19:03:53.447Z,12.50
2023-03-19T19:06:46.413Z,12.36
2023-03-19T19:09:14.391Z,12.36
2023-03-19T19:11:44.415Z,12.28
2023-03-19T19:14:22.091Z,12.16
2023-03-19T19:16:49.505Z,12.03
2023-03-19T19:19:23.657Z,11.93
2023-03-19T19:21:52.042Z,11.84
2023-03-19T19:24:19.112Z,11.80
2023-03-19T19:26:48.462Z,11.68
2023-03-19T19:29:24.307Z,11.56
2023-03-19T19:31:51.525Z,11.53
2023-03-19T19:34:18.430Z,11.46
2023-03-19T19:36:45.573Z,11.43
2023-03-19T19:39:12.417Z,11.32
2023-03-19T19:41:40.700Z,11.32
2023-03-19T19:44:07.819Z,11.36
2023-03-19T19:46:35.507Z,11.48
2023-03-19T19:49:02.640Z,11.50
2023-03-19T19:51:30.778Z,11.47
2023-03-19T19:53:58.709Z,11.41
2023-03-19T19:56:26.025Z,11.31
2023-03-19T19:58:55.121Z,11.24
2023-03-19T20:01:24.936Z,11.28
2023-03-19T20:03:52.818Z,11.16
2023-03-19T20:06:20.086Z,11.05
2023-03-19T20:08:50.240Z,10.87
2023-03-19T20:11:17.218Z,10.85
2023-03-19T20:13:50.090Z,10.87
2023-03-19T20:16:17.928Z,10.87
2023-03-19T20:18:46.025Z,10.83
2023-03-19T20:21:14.429Z,10.81
2023-03-19T20:23:43.090Z,10.73
2023-03-19T20:26:14.937Z,10.79
2023-03-19T20:28:44.311Z,10.80
2023-03-19T20:31:33.080Z,10.77
2023-03-19T20:33:59.968Z,10.65
2023-03-19T20:36:26.980Z,10.59
2023-03-19T20:38:54.282Z,10.46
2023-03-19T20:41:24.459Z,10.33
2023-03-19T20:43:52.160Z,10.23
2023-03-19T20:46:21.222Z,10.19
2023-03-19T20:48:48.898Z,10.22
2023-03-19T20:51:19.809Z,10.02
2023-03-19T20:53:48.566Z,10.01
2023-03-19T20:56:17.671Z,9.94
2023-03-19T20:58:45.554Z,9.92
2023-03-19T21:01:15.715Z,9.91
2023-03-19T21:03:42.830Z,9.93
2023-03-19T21:06:17.684Z,9.84
2023-03-19T21:08:51.803Z,9.82
2023-03-19T21:11:21.227Z,9.77
2023-03-19T21:13:49.863Z,9.81
2023-03-19T21:16:22.892Z,9.83
2023-03-19T21:18:50.386Z,9.83
2023-03-19T21:21:18.723Z,9.66
2023-03-19T21:23:56.385Z,9.72
2023-03-19T21:26:24.308Z,9.61
2023-03-19T21:28:56.011Z,9.61
2023-03-19T21:31:22.937Z,9.62
2023-03-19T21:33:51.763Z,9.53
2023-03-19T21:38:46.243Z,9.42
2023-03-19T21:41:23.969Z,9.41
2023-03-19T21:43:56.349Z,9.31
2023-03-19T21:46:29.007Z,9.35
2023-03-19T21:48:57.878Z,9.40
2023-03-19T21:51:27.158Z,9.37
2023-03-19T21:53:54.071Z,9.27
2023-03-19T21:56:24.358Z,9.28
2023-03-19T21:58:54.428Z,9.25
2023-03-19T22:01:24.098Z,9.27
2023-03-19T22:03:53.503Z,9.35
2023-03-19T22:06:22.256Z,9.33
2023-03-19T22:08:49.180Z,9.38
2023-03-19T22:11:31.929Z,9.35
2023-03-19T22:14:04.426Z,9.22
2023-03-19T22:16:32.559Z,9.26
2023-03-19T22:18:59.869Z,9.34
2023-03-19T22:21:26.797Z,9.30
2023-03-19T22:23:53.685Z,9.39
2023-03-19T22:26:34.223Z,9.35
2023-03-19T22:29:04.370Z,9.26
2023-03-19T22:31:32.287Z,9.30
2023-03-19T22:33:59.559Z,9.18
2023-03-19T22:36:26.471Z,9.27
2023-03-19T22:38:53.605Z,9.37
2023-03-19T22:41:31.632Z,9.23
2023-03-19T22:44:00.344Z,9.28
2023-03-19T22:46:27.945Z,9.13
2023-03-19T22:48:55.928Z,9.17
2023-03-19T22:51:25.702Z,9.27
2023-03-19T22:53:52.520Z,9.35
2023-03-19T22:56:21.939Z,9.61
2023-03-19T22:58:48.861Z,9.69
2023-03-19T23:01:21.488Z,9.78
2023-03-19T23:03:50.022Z,9.88
2023-03-19T23:06:29.579Z,9.84
2023-03-19T23:08:59.875Z,9.80
2023-03-19T23:11:27.167Z,9.80
2023-03-19T23:13:56.446Z,9.71
2023-03-19T23:16:25.353Z,9.72
2023-03-19T23:21:21.197Z,9.70
2023-03-19T23:23:48.147Z,9.73
2023-03-19T23:26:35.031Z,9.63
2023-03-19T23:29:04.462Z,9.55
2023-03-19T23:31:32.115Z,9.47
2023-03-19T23:33:58.973Z,9.32
2023-03-19T23:36:26.938Z,9.19
2023-03-19T23:38:53.871Z,9.06
2023-03-19T23:41:25.196Z,8.95
2023-03-19T23:43:53.322Z,9.00
2023-03-19T23:46:21.262Z,9.01
2023-03-19T23:48:48.247Z,9.02
2023-03-19T23:51:17.056Z,9.02
2023-03-19T23:53:43.986Z,9.09
2023-03-19T23:56:19.316Z,9.14
2023-03-19T23:58:49.217Z,9.17
